Time;durP1;ratioP1;P1;durP2;ratioP2;P2;SDS_P1;SDS_P2;PMS_P1;PMS_P2;Temp;Humidity;BMP_temperature;BMP_pressure;BME280_temperature;BME280_humidity;BME280_pressure;Samples;Min_cycle;Max_cycle;Signal;HPM_P1;HPM_P2
2022/07/05 00:00:46;;;;;;;14.07;12.10;;;;;;;22.75;62.27;99496.13;5083433;28;20031;-64
2022/07/05 00:03:12;;;;;;;16.08;13.45;;;;;;;22.70;63.11;99496.47;5083528;28;20024;-64
2022/07/05 00:05:38;;;;;;;18.80;13.80;;;;;;;22.63;63.32;99499.66;5083542;28;20340;-64
2022/07/05 00:08:04;;;;;;;14.75;13.30;;;;;;;22.70;63.04;99498.25;5074216;28;20041;-64
2022/07/05 00:10:31;;;;;;;14.55;12.95;;;;;;;22.61;63.49;99488.41;5045256;28;20036;-64
2022/07/05 00:12:57;;;;;;;14.10;12.80;;;;;;;22.59;63.16;99501.72;5063284;28;20029;-65
2022/07/05 00:15:23;;;;;;;15.27;13.35;;;;;;;22.55;63.47;99503.72;5063252;28;20067;-64
2022/07/05 00:17:49;;;;;;;13.50;12.10;;;;;;;22.53;63.37;99495.09;5062891;28;20318;-64
2022/07/05 00:20:14;;;;;;;17.23;13.63;;;;;;;22.54;64.01;99502.03;5062874;28;20037;-66
2022/07/05 00:22:40;;;;;;;16.52;13.40;;;;;;;22.48;63.70;99504.31;5063162;28;20025;-66
2022/07/05 00:25:06;;;;;;;15.15;13.13;;;;;;;22.52;64.25;99508.41;5062870;28;20225;-66
2022/07/05 00:27:32;;;;;;;14.52;13.05;;;;;;;22.48;64.07;99509.59;5083003;28;20066;-66
2022/07/05 00:29:57;;;;;;;15.95;13.68;;;;;;;22.46;64.60;99509.69;5066687;28;20203;-66
2022/07/05 00:32:23;;;;;;;18.77;13.73;;;;;;;22.40;64.09;99508.34;5062741;28;20025;-66
2022/07/05 00:34:48;;;;;;;15.35;13.73;;;;;;;22.33;65.00;99516.81;5062994;28;20032;-65
2022/07/05 00:37:14;;;;;;;13.85;12.55;;;;;;;22.38;65.09;99512.06;5062627;28;20056;-64
2022/07/05 00:39:40;;;;;;;16.67;13.70;;;;;;;22.29;64.84;99510.91;5044939;28;20314;-65
2022/07/05 00:42:05;;;;;;;14.82;13.35;;;;;;;22.30;65.06;99515.19;5062492;28;20031;-64
2022/07/05 00:44:37;;;;;;;16.85;13.00;;;;;;;22.29;65.37;99505.63;5062729;28;20047;-64
2022/07/05 00:47:05;;;;;;;16.00;13.50;;;;;;;22.27;64.81;99515.44;5044677;28;20025;-63
2022/07/05 00:49:31;;;;;;;15.98;12.73;;;;;;;22.22;64.26;99507.88;5066656;28;20032;-63
2022/07/05 00:51:58;;;;;;;15.52;12.77;;;;;;;22.26;64.88;99503.22;5082809;28;20025;-63
2022/07/05 00:54:24;;;;;;;17.23;13.70;;;;;;;22.19;65.39;99508.09;5075369;28;20028;-63
2022/07/05 00:56:51;;;;;;;14.85;12.75;;;;;;;22.16;65.51;99503.03;5062393;28;20221;-64
2022/07/05 00:59:17;;;;;;;17.00;13.82;;;;;;;22.20;65.26;99511.56;5062457;28;20025;-64
2022/07/05 01:01:42;;;;;;;14.30;12.80;;;;;;;22.18;65.84;99510.84;5062437;28;20025;-64
2022/07/05 01:04:08;;;;;;;15.30;13.68;;;;;;;22.19;65.52;99505.47;5062637;28;20053;-63
2022/07/05 01:06:34;;;;;;;14.50;13.05;;;;;;;22.22;65.50;99513.13;5062376;28;20044;-64
2022/07/05 01:09:00;;;;;;;15.48;12.68;;;;;;;22.23;65.26;99517.47;5062307;28;20036;-63
2022/07/05 01:11:26;;;;;;;16.27;13.02;;;;;;;22.27;64.82;99509.31;5062317;28;20029;-63
2022/07/05 01:13:52;;;;;;;15.20;12.60;;;;;;;22.23;64.91;99509.56;5062387;28;20348;-65
2022/07/05 01:16:18;;;;;;;15.27;12.82;;;;;;;22.19;65.20;99513.38;5062484;28;20032;-65
2022/07/05 01:18:44;;;;;;;17.15;12.93;;;;;;;22.17;65.54;99514.44;5062439;28;20025;-65
2022/07/05 01:21:15;;;;;;;14.38;12.93;;;;;;;21.83;65.61;99469.38;5062369;28;20314;-65
2022/07/05 01:23:40;;;;;;;17.55;13.00;;;;;;;22.16;65.42;99518.00;5062500;28;20067;-64
2022/07/05 01:26:07;;;;;;;15.75;13.50;;;;;;;22.10;64.98;99516.66;5071073;28;20063;-63
2022/07/05 01:28:33;;;;;;;15.25;13.07;;;;;;;21.85;65.75;99492.06;5082412;28;20051;-63
2022/07/05 01:31:01;;;;;;;16.77;12.98;;;;;;;21.72;65.54;99472.81;5082502;28;20273;-64
2022/07/05 01:33:30;;;;;;;14.75;13.25;;;;;;;22.09;65.67;99524.69;5062655;28;20028;-67
2022/07/05 01:35:57;;;;;;;16.23;12.82;;;;;;;22.04;65.86;99523.22;5063962;28;20037;-67
2022/07/05 01:38:24;;;;;;;15.73;13.48;;;;;;;22.06;65.78;99517.81;5066128;28;20048;-66
2022/07/05 01:40:51;;;;;;;17.30;13.18;;;;;;;22.06;65.94;99523.09;5072270;28;20181;-65
2022/07/05 01:43:20;;;;;;;17.48;13.10;;;;;;;22.02;66.06;99511.13;5086111;28;20047;-67
2022/07/05 01:45:46;;;;;;;15.77;14.13;;;;;;;22.09;65.96;99522.03;5079228;28;20078;-67
2022/07/05 01:48:14;;;;;;;14.73;12.80;;;;;;;22.01;66.12;99509.44;5065869;28;20056;-67
2022/07/05 01:50:53;;;;;;;14.05;12.63;;;;;;;21.76;66.57;99474.25;5065271;28;20031;-66
2022/07/05 01:53:29;;;;;;;15.05;13.43;;;;;;;21.83;66.95;99501.88;5065982;28;20040;-65
2022/07/05 01:55:59;;;;;;;15.55;13.98;;;;;;;21.92;66.91;99513.56;5065761;28;20032;-65
2022/07/05 01:58:26;;;;;;;14.80;13.40;;;;;;;21.96;66.11;99509.75;5065617;28;20392;-66
2022/07/05 02:00:53;;;;;;;17.20;13.32;;;;;;;22.04;65.96;99514.47;5065882;28;20039;-66
2022/07/05 02:03:19;;;;;;;15.50;13.90;;;;;;;22.03;66.33;99508.38;5065389;28;20033;-66
2022/07/05 02:05:45;;;;;;;21.15;13.90;;;;;;;22.10;66.03;99511.38;5065706;28;20088;-66
2022/07/05 02:08:12;;;;;;;19.20;13.93;;;;;;;22.09;66.09;99511.50;5065546;28;20052;-67
2022/07/05 02:10:39;;;;;;;15.68;13.65;;;;;;;22.07;66.36;99508.97;5065457;28;20126;-66
2022/07/05 02:13:06;;;;;;;19.50;15.18;;;;;;;21.86;65.00;99469.16;5065525;28;20322;-65
2022/07/05 02:15:36;;;;;;;17.77;13.93;;;;;;;22.18;64.85;99503.75;5045692;28;20053;-64
2022/07/05 02:18:03;;;;;;;20.70;14.85;;;;;;;21.96;64.94;99457.03;5061389;28;20037;-64
2022/07/05 02:20:32;;;;;;;17.75;13.82;;;;;;;22.29;65.59;99507.41;5065365;28;20028;-64
2022/07/05 02:22:57;;;;;;;18.70;13.57;;;;;;;22.39;65.44;99519.84;5064973;28;20036;-64
2022/07/05 02:25:23;;;;;;;15.88;14.02;;;;;;;22.40;65.88;99521.56;5067455;28;20061;-64
2022/07/05 02:27:50;;;;;;;22.05;14.88;;;;;;;22.39;65.82;99519.03;5084535;28;20028;-67
2022/07/05 02:30:16;;;;;;;14.77;13.27;;;;;;;22.43;65.32;99512.53;5085079;28;20321;-66
2022/07/05 02:32:42;;;;;;;18.23;13.50;;;;;;;22.53;65.36;99521.47;5054127;28;20037;-66
2022/07/05 02:35:09;;;;;;;14.70;12.77;;;;;;;22.37;63.43;99487.44;5073479;28;20033;-67
2022/07/05 02:37:35;;;;;;;16.08;13.57;;;;;;;22.63;64.57;99519.00;5083119;28;20090;-67
2022/07/05 02:40:01;;;;;;;15.95;14.32;;;;;;;22.67;64.38;99519.59;5064850;28;20025;-67
2022/07/05 02:42:28;;;;;;;15.43;13.85;;;;;;;22.73;63.64;99516.50;5065289;28;20025;-67
2022/07/05 02:44:54;;;;;;;15.07;13.23;;;;;;;22.74;64.73;99511.09;5079605;28;20024;-67
2022/07/05 02:47:19;;;;;;;16.10;14.40;;;;;;;22.66;62.59;99510.00;5064359;28;20021;-67
2022/07/05 02:49:45;;;;;;;16.15;14.40;;;;;;;22.74;62.14;99513.75;5069951;28;20536;-68
2022/07/05 02:52:10;;;;;;;17.33;13.90;;;;;;;22.80;62.38;99517.72;5084761;28;20036;-66
2022/07/05 02:54:36;;;;;;;17.55;13.73;;;;;;;22.86;61.63;99525.19;5058334;28;20020;-66
2022/07/05 02:57:01;;;;;;;18.98;13.02;;;;;;;22.95;61.50;99518.38;5080341;28;20032;-66
2022/07/05 02:59:27;;;;;;;15.73;13.88;;;;;;;22.89;61.52;99511.75;5066235;28;20024;-66
2022/07/05 03:01:53;;;;;;;15.27;12.80;;;;;;;23.08;61.42;99521.75;5064383;28;20075;-66
2022/07/05 03:04:18;;;;;;;15.30;13.43;;;;;;;23.11;61.30;99520.72;5065810;28;20021;-66
2022/07/05 03:06:44;;;;;;;15.18;13.32;;;;;;;23.14;61.27;99520.47;5084820;28;20024;-66
2022/07/05 03:09:10;;;;;;;16.42;13.48;;;;;;;23.19;61.22;99528.91;5067524;28;20028;-66
2022/07/05 03:11:35;;;;;;;18.38;14.13;;;;;;;23.08;61.00;99527.03;5064373;28;20229;-66
2022/07/05 03:14:01;;;;;;;15.45;13.38;;;;;;;23.21;60.41;99529.59;5064321;28;20031;-66
2022/07/05 03:16:27;;;;;;;15.02;13.43;;;;;;;23.21;61.75;99526.97;5064228;28;20024;-66
2022/07/05 03:18:52;;;;;;;15.48;12.88;;;;;;;23.24;60.68;99526.75;5064237;28;20119;-67
2022/07/05 03:21:18;;;;;;;18.23;13.60;;;;;;;23.29;60.42;99522.88;5046479;28;20052;-66
2022/07/05 03:23:44;;;;;;;16.70;12.23;;;;;;;23.49;59.82;99524.84;5077015;28;20043;-66
2022/07/05 03:26:09;;;;;;;14.35;12.95;;;;;;;23.62;60.11;99524.72;5075930;28;20029;-69
2022/07/05 03:28:35;;;;;;;14.73;12.75;;;;;;;23.78;59.67;99535.75;5063839;28;20021;-69
2022/07/05 03:31:01;;;;;;;16.63;13.88;;;;;;;23.76;59.65;99532.41;5063971;28;20036;-69
2022/07/05 03:33:26;;;;;;;14.82;13.13;;;;;;;23.76;60.57;99526.28;5082829;28;20221;-69
2022/07/05 03:35:52;;;;;;;14.45;12.25;;;;;;;23.84;60.21;99538.88;5083785;28;20021;-64
2022/07/05 03:38:18;;;;;;;13.25;11.93;;;;;;;23.87;60.25;99531.59;5074450;28;20059;-64
2022/07/05 03:40:43;;;;;;;14.50;11.63;;;;;;;23.91;59.89;99537.47;5063654;28;20335;-64
2022/07/05 03:43:09;;;;;;;13.23;11.82;;;;;;;23.93;59.66;99532.91;5063936;28;20093;-66
2022/07/05 03:45:35;;;;;;;17.63;12.05;;;;;;;23.98;59.65;99545.78;5063399;28;20078;-66
2022/07/05 03:48:00;;;;;;;16.40;12.43;;;;;;;24.09;58.72;99543.94;5063489;28;20047;-65
2022/07/05 03:50:27;;;;;;;14.52;12.55;;;;;;;24.15;59.00;99547.06;5063622;28;20132;-65
2022/07/05 03:52:53;;;;;;;13.52;12.13;;;;;;;24.09;57.01;99540.47;5063501;28;20032;-65
2022/07/05 03:55:19;;;;;;;12.80;11.23;;;;;;;24.24;56.94;99539.22;5063433;28;20037;-65
2022/07/05 03:57:45;;;;;;;13.10;11.55;;;;;;;24.36;57.04;99545.31;5063039;28;20017;-67
2022/07/05 04:00:12;;;;;;;13.48;11.52;;;;;;;24.46;56.88;99545.41;5062708;28;20059;-67
2022/07/05 04:02:38;;;;;;;16.98;11.05;;;;;;;24.53;57.10;99553.72;5045489;28;20024;-67
2022/07/05 04:05:04;;;;;;;13.57;10.32;;;;;;;24.57;57.70;99544.50;5070295;28;20308;-67
2022/07/05 04:07:30;;;;;;;13.13;11.50;;;;;;;24.56;57.10;99559.56;5082207;28;20300;-66
2022/07/05 04:09:55;;;;;;;14.52;11.43;;;;;;;24.58;57.21;99547.03;5063259;28;20033;-66
2022/07/05 04:12:21;;;;;;;13.70;11.25;;;;;;;24.63;57.06;99555.47;5062309;28;20293;-66
2022/07/05 04:14:47;;;;;;;17.30;12.50;;;;;;;24.74;56.89;99557.25;5064934;28;20032;-66
2022/07/05 04:17:12;;;;;;;12.93;11.27;;;;;;;24.80;56.73;99555.91;5062455;28;20234;-67
2022/07/05 04:19:38;;;;;;;15.85;12.80;;;;;;;24.76;56.51;99560.59;5062319;28;20222;-66
2022/07/05 04:22:03;;;;;;;13.63;11.98;;;;;;;24.80;56.35;99561.22;5044716;28;20017;-65
2022/07/05 04:24:29;;;;;;;16.52;12.52;;;;;;;24.78;55.94;99560.47;5062669;28;20064;-65
2022/07/05 04:26:55;;;;;;;17.60;12.32;;;;;;;24.81;55.88;99570.81;5062633;28;20206;-65
2022/07/05 04:29:20;;;;;;;17.42;12.43;;;;;;;24.85;55.19;99566.94;5064247;28;20029;-65
2022/07/05 04:31:46;;;;;;;14.52;11.35;;;;;;;25.04;55.26;99566.25;5067148;28;20025;-65
2022/07/05 04:34:11;;;;;;;13.60;11.73;;;;;;;25.10;54.23;99567.56;5082925;28;20021;-65
2022/07/05 04:36:40;;;;;;;14.50;11.23;;;;;;;25.01;54.41;99566.50;5070163;28;20017;-65
2022/07/05 04:39:07;;;;;;;17.48;12.52;;;;;;;25.17;55.04;99574.03;5062019;28;20092;-65
2022/07/05 04:41:33;;;;;;;12.10;10.80;;;;;;;25.30;54.91;99563.22;5064203;28;20032;-66
2022/07/05 04:43:59;;;;;;;11.95;10.63;;;;;;;25.40;55.32;99571.25;5059735;28;20049;-67
2022/07/05 04:46:24;;;;;;;13.77;10.52;;;;;;;25.44;54.04;99570.00;5061764;28;20024;-68
2022/07/05 04:48:50;;;;;;;14.27;10.77;;;;;;;25.53;54.10;99569.22;5062210;28;20036;-67
2022/07/05 04:51:15;;;;;;;12.63;11.27;;;;;;;25.50;53.46;99566.84;5062196;28;20036;-67
2022/07/05 04:53:41;;;;;;;13.68;10.95;;;;;;;25.61;53.46;99563.25;5062415;28;20069;-67
2022/07/05 04:56:07;;;;;;;17.63;11.60;;;;;;;25.71;53.26;99568.59;5062338;28;20055;-65
2022/07/05 04:58:33;;;;;;;11.38;10.25;;;;;;;25.82;53.39;99550.78;5061957;28;20029;-66
2022/07/05 05:00:59;;;;;;;14.43;10.93;;;;;;;25.86;52.86;99558.47;5062346;28;20033;-65
2022/07/05 05:03:25;;;;;;;12.23;10.38;;;;;;;25.85;52.77;99549.66;5061918;28;20187;-65
2022/07/05 05:05:50;;;;;;;14.30;11.02;;;;;;;25.91;53.19;99556.25;5062087;28;20056;-67
2022/07/05 05:08:16;;;;;;;12.32;10.55;;;;;;;26.05;51.02;99557.72;5044157;28;20040;-67
2022/07/05 05:10:41;;;;;;;11.98;10.23;;;;;;;25.99;50.86;99559.06;5063432;28;20031;-66
2022/07/05 05:13:07;;;;;;;10.98;9.88;;;;;;;26.20;50.54;99559.00;5048726;28;20017;-67
2022/07/05 05:15:32;;;;;;;14.50;10.38;;;;;;;26.32;50.77;99560.59;5066006;28;20036;-66
2022/07/05 05:17:58;;;;;;;16.35;10.35;;;;;;;26.54;50.09;99555.97;5065803;28;20039;-66
2022/07/05 05:20:23;;;;;;;16.65;10.70;;;;;;;26.58;49.32;99552.06;5066299;28;20021;-66
2022/07/05 05:22:49;;;;;;;13.10;9.73;;;;;;;26.69;49.01;99544.00;5066196;28;20096;-67
2022/07/05 05:25:15;;;;;;;11.55;9.80;;;;;;;26.90;49.17;99544.81;5066196;28;20032;-68
2022/07/05 05:27:46;;;;;;;17.92;10.43;;;;;;;27.06;48.82;99553.03;5065724;28;20017;-68
2022/07/05 05:30:12;;;;;;;;;;;;;;;27.11;47.60;99552.63;5066151;28;20035;-68
2022/07/05 05:32:38;;;;;;;13.05;9.20;;;;;;;27.06;48.08;99537.09;5066147;28;20125;-68
2022/07/05 05:35:05;;;;;;;12.18;9.23;;;;;;;27.12;46.23;99549.81;5046469;28;20051;-68
2022/07/05 05:37:30;;;;;;;11.40;9.13;;;;;;;27.13;45.95;99550.66;5065984;28;20056;-68
2022/07/05 05:39:56;;;;;;;13.10;8.73;;;;;;;27.13;45.50;99548.81;5047746;28;20033;-66
2022/07/05 05:42:22;;;;;;;12.77;8.23;;;;;;;27.35;46.37;99555.66;5065589;28;20047;-67
2022/07/05 05:44:47;;;;;;;14.05;9.15;;;;;;;27.31;46.26;99546.25;5065410;28;20333;-68
2022/07/05 05:47:13;;;;;;;9.82;8.48;;;;;;;27.44;46.70;99550.47;5064913;28;20029;-65
2022/07/05 05:49:38;;;;;;;10.75;8.70;;;;;;;27.53;46.54;99557.56;5066972;28;20048;-65
2022/07/05 05:52:04;;;;;;;14.43;8.25;;;;;;;27.55;45.91;99555.63;5031012;28;20314;-66
2022/07/05 05:54:30;;;;;;;9.52;8.52;;;;;;;27.37;46.25;99542.22;5065088;28;20074;-68
2022/07/05 05:56:55;;;;;;;10.23;7.95;;;;;;;27.46;46.04;99548.50;5065404;28;20029;-68
2022/07/05 05:59:21;;;;;;;12.93;8.30;;;;;;;27.52;45.98;99546.09;5065186;28;20017;-69
2022/07/05 06:01:46;;;;;;;9.65;7.78;;;;;;;27.59;46.56;99543.66;5065341;28;20249;-69
2022/07/05 06:04:12;;;;;;;10.45;8.18;;;;;;;27.61;45.85;99544.38;5065207;28;20290;-69
2022/07/05 06:06:37;;;;;;;9.57;7.50;;;;;;;27.58;45.29;99542.00;5067330;28;20033;-70
2022/07/05 06:09:03;;;;;;;11.00;7.88;;;;;;;27.58;46.07;99531.38;5065127;28;20040;-66
2022/07/05 06:11:29;;;;;;;8.55;7.75;;;;;;;27.72;45.76;99536.19;5065088;28;20233;-66
2022/07/05 06:13:55;;;;;;;8.20;7.40;;;;;;;27.98;43.94;99545.34;5065015;28;20025;-67
2022/07/05 06:16:21;;;;;;;9.45;8.07;;;;;;;28.03;45.26;99532.41;5046269;28;20040;-67
2022/07/05 06:18:46;;;;;;;9.02;7.43;;;;;;;27.88;45.59;99532.06;5064772;28;20021;-66
2022/07/05 06:21:12;;;;;;;12.15;8.10;;;;;;;28.02;44.42;99538.72;5062786;28;20031;-65
2022/07/05 06:23:37;;;;;;;10.52;7.75;;;;;;;27.97;43.55;99539.16;5073244;28;20029;-66
2022/07/05 06:26:03;;;;;;;7.82;7.03;;;;;;;28.16;44.19;99540.03;5069718;28;20161;-66
2022/07/05 06:28:29;;;;;;;11.30;7.53;;;;;;;28.09;43.30;99542.50;5063911;28;20272;-67
2022/07/05 06:30:54;;;;;;;8.68;7.65;;;;;;;28.23;43.25;99538.47;5063252;28;20029;-67
2022/07/05 06:33:20;;;;;;;9.05;8.18;;;;;;;28.33;43.25;99539.25;5079852;28;20037;-66
2022/07/05 06:35:46;;;;;;;11.00;7.68;;;;;;;28.28;43.31;99530.03;5083235;28;20059;-67
2022/07/05 06:38:11;;;;;;;11.98;7.78;;;;;;;28.29;43.61;99532.53;5075887;28;20048;-66
2022/07/05 06:40:40;;;;;;;10.15;8.32;;;;;;;28.37;43.58;99529.94;5063717;28;20040;-68
2022/07/05 06:43:07;;;;;;;12.38;8.48;;;;;;;28.53;42.70;99533.75;5064501;28;20374;-66
2022/07/05 06:45:32;;;;;;;8.68;7.93;;;;;;;28.49;43.95;99527.06;5059518;28;20070;-67
2022/07/05 06:48:05;;;;;;;12.65;7.70;;;;;;;28.30;44.56;99523.53;5071868;28;20137;-68
2022/07/05 06:50:35;;;;;;;14.00;7.75;;;;;;;28.35;44.77;99525.78;5084841;28;20032;-69
2022/07/05 06:53:02;;;;;;;10.57;8.02;;;;;;;28.43;44.77;99523.16;5079268;28;20025;-72
2022/07/05 06:55:28;;;;;;;10.43;8.07;;;;;;;28.45;44.86;99523.88;5064301;28;20032;-71
2022/07/05 06:58:05;;;;;;;11.13;8.15;;;;;;;28.56;44.79;99528.97;5064574;28;20067;-71
2022/07/05 07:00:34;;;;;;;9.20;8.35;;;;;;;28.59;44.35;99522.50;5082286;28;20285;-70
2022/07/05 07:03:00;;;;;;;11.27;8.40;;;;;;;28.68;44.30;99524.25;5070965;28;20326;-71
2022/07/05 07:05:26;;;;;;;9.70;8.70;;;;;;;28.76;43.47;99518.16;5073146;28;20073;-71
2022/07/05 07:10:36;;;;;;;10.93;9.10;;;;;;;28.98;42.36;99521.31;5066394;28;20310;-70
2022/07/05 07:13:02;;;;;;;11.52;8.77;;;;;;;29.16;43.44;99523.94;5084344;28;20123;-70
2022/07/05 07:15:29;;;;;;;11.95;9.20;;;;;;;29.00;41.78;99522.00;5084408;28;20048;-72
2022/07/05 07:17:55;;;;;;;9.50;8.63;;;;;;;29.00;42.80;99525.50;5071150;28;20016;-69
2022/07/05 07:20:20;;;;;;;11.68;9.10;;;;;;;29.14;41.62;99520.59;5064011;28;20269;-70
2022/07/05 07:22:46;;;;;;;12.23;9.38;;;;;;;29.17;41.70;99517.59;5067471;28;20031;-69
2022/07/05 07:25:12;;;;;;;11.45;9.20;;;;;;;29.40;43.40;99518.78;5084245;28;20217;-69
2022/07/05 07:27:45;;;;;;;9.52;8.63;;;;;;;29.18;41.91;99482.75;5065394;28;20092;-70
2022/07/05 07:30:16;;;;;;;19.13;8.65;;;;;;;29.36;42.23;99512.09;5064109;28;20024;-70
2022/07/05 07:32:42;;;;;;;12.35;9.93;;;;;;;29.15;42.33;99523.09;5063749;28;20029;-70
2022/07/05 07:35:09;;;;;;;11.05;9.32;;;;;;;29.29;41.20;99516.38;5063864;28;20296;-70
2022/07/05 07:37:35;;;;;;;10.30;9.35;;;;;;;29.48;42.07;99512.63;5063570;28;20052;-69
2022/07/05 07:40:02;;;;;;;13.77;9.40;;;;;;;29.66;41.90;99522.38;5063710;28;20029;-67
2022/07/05 07:42:29;;;;;;;16.52;9.43;;;;;;;29.62;42.63;99519.22;5045968;28;20310;-68
2022/07/05 07:44:54;;;;;;;10.88;9.63;;;;;;;29.66;41.68;99512.56;5065104;28;20033;-69
2022/07/05 07:47:20;;;;;;;10.45;9.32;;;;;;;29.70;41.88;99515.72;5065678;28;20124;-70
2022/07/05 07:49:46;;;;;;;11.50;9.30;;;;;;;29.61;42.67;99520.19;5063539;28;20091;-70
2022/07/05 07:52:11;;;;;;;9.40;8.48;;;;;;;29.65;41.35;99518.88;5063924;28;20055;-68
2022/07/05 07:54:37;;;;;;;13.48;9.27;;;;;;;29.70;40.64;99511.25;5063363;28;20195;-68
2022/07/05 07:57:04;;;;;;;10.43;8.52;;;;;;;29.65;42.55;99502.88;5063528;28;20191;-67
2022/07/05 07:59:31;;;;;;;11.02;9.55;;;;;;;29.83;42.15;99512.59;5063291;28;20028;-67
2022/07/05 08:01:57;;;;;;;12.40;9.70;;;;;;;29.75;40.93;99514.25;5063339;28;20033;-68
2022/07/05 08:04:22;;;;;;;10.88;9.10;;;;;;;29.86;41.17;99513.16;5063630;28;20147;-66
2022/07/05 08:06:48;;;;;;;9.65;8.73;;;;;;;30.00;41.36;99511.69;5063513;28;20021;-66
2022/07/05 08:09:13;;;;;;;14.68;9.20;;;;;;;30.02;41.18;99516.88;5063569;28;20082;-67
2022/07/05 08:11:40;;;;;;;10.38;9.40;;;;;;;29.76;40.85;99507.09;5063730;28;20064;-67
2022/07/05 08:14:06;;;;;;;10.57;9.35;;;;;;;29.81;41.47;99506.59;5063461;28;20036;-67
2022/07/05 08:16:32;;;;;;;11.88;9.70;;;;;;;29.86;40.87;99505.13;5062708;28;20367;-70
2022/07/05 08:21:42;;;;;;;10.57;9.50;;;;;;;29.83;41.82;99499.25;5080452;28;20081;-69
2022/07/05 08:24:10;;;;;;;11.30;10.20;;;;;;;29.82;40.68;99466.38;5068991;28;20052;-69
2022/07/05 08:26:36;;;;;;;11.65;9.57;;;;;;;30.15;40.83;99508.38;5062870;28;20357;-68
2022/07/05 08:29:09;;;;;;;10.85;9.70;;;;;;;30.11;40.26;99500.72;5067824;28;20040;-67
2022/07/05 08:31:41;;;;;;;11.75;9.65;;;;;;;30.03;39.68;99459.75;5081653;28;20309;-70
2022/07/05 08:34:07;;;;;;;11.98;9.50;;;;;;;30.37;40.36;99486.38;5062923;28;20032;-70
2022/07/05 08:36:33;;;;;;;10.65;9.65;;;;;;;30.18;39.48;99486.69;5062626;28;20217;-66
2022/07/05 08:38:59;;;;;;;10.73;9.60;;;;;;;30.34;39.63;99493.88;5044868;28;20044;-67
2022/07/05 08:41:24;;;;;;;11.70;10.50;;;;;;;30.35;39.72;99487.53;5070547;28;20118;-69
2022/07/05 08:43:54;;;;;;;10.93;9.73;;;;;;;30.49;39.26;99486.06;5082801;28;20095;-69
2022/07/05 08:46:20;;;;;;;11.40;10.30;;;;;;;29.87;39.10;99487.28;5052942;28;20199;-66
2022/07/05 08:48:51;;;;;;;11.10;9.95;;;;;;;30.07;39.86;99483.34;5062815;28;20031;-66
2022/07/05 08:51:21;;;;;;;11.10;10.00;;;;;;;30.16;39.81;99483.31;5062868;28;20017;-68
2022/07/05 08:53:48;;;;;;;11.40;10.35;;;;;;;30.14;39.65;99480.81;5063243;28;20036;-72
2022/07/05 08:56:14;;;;;;;13.48;10.65;;;;;;;30.20;38.96;99484.66;5062866;28;20028;-71
2022/07/05 08:58:40;;;;;;;11.75;10.65;;;;;;;29.93;39.60;99478.63;5062497;28;20043;-70
2022/07/05 09:01:08;;;;;;;11.38;10.20;;;;;;;29.83;38.96;99452.06;5062555;28;20311;-68
2022/07/05 09:03:57;;;;;;;10.88;9.93;;;;;;;29.88;39.90;99441.72;5077997;28;20036;-68
2022/07/05 09:06:25;;;;;;;12.00;10.93;;;;;;;30.00;39.84;99474.31;5061983;28;20052;-68
2022/07/05 09:08:54;;;;;;;12.05;10.95;;;;;;;29.63;39.53;99445.28;5061938;28;20039;-70
2022/07/05 09:11:25;;;;;;;12.23;11.02;;;;;;;29.81;39.79;99479.91;5061445;28;20100;-70
2022/07/05 09:13:51;;;;;;;11.00;9.93;;;;;;;29.49;40.66;99465.41;5062054;28;20036;-69
2022/07/05 09:16:17;;;;;;;11.98;10.57;;;;;;;29.61;40.86;99459.63;5061924;28;20024;-70
2022/07/05 09:18:49;;;;;;;12.10;10.77;;;;;;;29.76;40.28;99430.47;5061832;28;20048;-70
2022/07/05 09:21:26;;;;;;;13.32;10.63;;;;;;;29.78;39.52;99431.13;5076811;28;20329;-70
2022/07/05 09:24:00;;;;;;;12.13;10.88;;;;;;;29.75;39.73;99426.13;5082300;28;20111;-65
2022/07/05 09:26:49;;;;;;;11.50;10.23;;;;;;;30.12;41.10;99461.47;5074529;28;20093;-65
2022/07/05 09:29:18;;;;;;;14.07;10.52;;;;;;;29.84;41.10;99420.84;5062250;28;20029;-68
2022/07/05 09:31:46;;;;;;;12.15;10.93;;;;;;;29.61;40.81;99403.56;5045907;28;20044;-72
2022/07/05 09:34:14;;;;;;;12.18;11.07;;;;;;;29.75;39.84;99426.13;5082551;28;20027;-70
2022/07/05 09:36:48;;;;;;;12.73;11.52;;;;;;;29.74;39.36;99445.84;5063887;28;20205;-67
2022/07/05 09:39:13;;;;;;;14.57;11.80;;;;;;;29.63;41.22;99456.81;5061795;28;20084;-68
2022/07/05 09:41:39;;;;;;;12.52;11.27;;;;;;;29.73;40.16;99457.50;5044326;28;20024;-67
2022/07/05 09:44:05;;;;;;;12.00;10.90;;;;;;;29.76;41.25;99459.03;5061870;28;20021;-68
2022/07/05 09:46:31;;;;;;;15.18;11.82;;;;;;;29.81;41.13;99456.69;5061886;28;20017;-68
2022/07/05 09:48:57;;;;;;;13.05;11.85;;;;;;;29.75;42.04;99466.19;5062261;28;20096;-68
2022/07/05 09:51:23;;;;;;;12.48;11.30;;;;;;;29.55;41.14;99462.94;5077379;28;20185;-69
2022/07/05 09:53:51;;;;;;;23.17;12.40;;;;;;;29.20;45.59;99429.25;5070925;28;20027;-68
2022/07/05 09:56:19;;;;;;;19.33;13.10;;;;;;;29.11;50.20;99473.72;5062600;28;20131;-68
2022/07/05 09:58:45;;;;;;;18.45;13.88;;;;;;;28.74;54.22;99464.16;5065614;28;20429;-67
2022/07/05 10:01:27;;;;;;;22.27;15.43;;;;;;;28.21;59.62;99458.72;5065617;28;20272;-68
2022/07/05 10:03:55;;;;;;;24.33;16.15;;;;;;;27.77;62.65;99453.25;5065549;28;20032;-67
2022/07/05 10:06:25;;;;;;;21.45;16.30;;;;;;;27.23;62.65;99444.25;5065713;28;20037;-66
2022/07/05 10:08:52;;;;;;;21.08;16.58;;;;;;;27.00;64.19;99413.53;5065593;28;20021;-67
2022/07/05 10:11:19;;;;;;;21.08;17.52;;;;;;;27.00;65.29;99452.59;5065019;28;20033;-67
2022/07/05 10:13:48;;;;;;;21.50;18.58;;;;;;;26.68;67.39;99457.28;5065207;28;20048;-67
2022/07/05 10:16:16;;;;;;;19.40;17.17;;;;;;;26.25;66.13;99408.09;5065287;28;20017;-66
2022/07/05 10:18:44;;;;;;;20.08;17.27;;;;;;;25.99;64.50;99408.59;5065447;28;20020;-65
2022/07/05 10:21:14;;;;;;;22.17;16.88;;;;;;;26.15;66.52;99444.41;5065066;28;20040;-66
2022/07/05 10:23:46;;;;;;;20.35;15.80;;;;;;;25.71;66.52;99415.59;5074273;28;20047;-67
2022/07/05 10:26:14;;;;;;;19.55;15.30;;;;;;;25.29;65.33;99411.25;5079422;28;20096;-67
2022/07/05 10:28:41;;;;;;;20.98;17.73;;;;;;;25.58;67.41;99442.38;5064623;28;20090;-68
2022/07/05 10:31:09;;;;;;;24.95;17.92;;;;;;;25.48;69.46;99446.78;5064873;28;20044;-67
2022/07/05 10:33:35;;;;;;;19.02;17.17;;;;;;;25.41;68.83;99461.56;5063561;28;20234;-67
2022/07/05 10:36:03;;;;;;;20.83;16.23;;;;;;;25.18;69.01;99456.41;5084934;28;20239;-66
2022/07/05 10:38:30;;;;;;;16.60;14.60;;;;;;;24.96;68.53;99450.31;5075712;28;20056;-67
2022/07/05 10:41:02;;;;;;;15.30;13.13;;;;;;;24.97;67.41;99454.63;5047134;28;20029;-67
2022/07/05 10:43:28;;;;;;;15.07;13.48;;;;;;;24.77;68.26;99453.69;5065165;28;20048;-65
2022/07/05 10:45:53;;;;;;;15.32;12.55;;;;;;;24.65;67.50;99475.91;5064558;28;20302;-66
2022/07/05 10:48:21;;;;;;;13.63;11.88;;;;;;;24.54;66.07;99479.44;5044626;28;20020;-65
2022/07/05 10:50:57;;;;;;;12.75;11.55;;;;;;;24.38;69.15;99463.94;5074822;28;20100;-66
2022/07/05 10:53:36;;;;;;;13.25;11.82;;;;;;;24.51;66.97;99516.72;5044568;28;20088;-67
2022/07/05 10:56:04;;;;;;;16.38;13.55;;;;;;;24.22;69.61;99538.50;5049244;28;20044;-65
2022/07/05 10:58:37;;;;;;;16.80;15.05;;;;;;;24.13;71.94;99545.38;5064280;28;20021;-64
2022/07/05 11:01:12;;;;;;;28.65;17.75;;;;;;;23.95;75.03;99558.25;5064032;28;20024;-63
2022/07/05 11:03:52;;;;;;;27.63;18.45;;;;;;;23.77;75.26;99564.97;5064341;28;20013;-63
2022/07/05 11:06:28;;;;;;;42.00;20.63;;;;;;;23.57;78.36;99571.81;5063406;28;20100;-63
2022/07/05 11:08:57;;;;;;;27.20;19.98;;;;;;;23.15;81.47;99555.69;5062253;28;20032;-64
2022/07/05 11:11:25;;;;;;;25.48;19.42;;;;;;;23.00;80.83;99549.72;5063977;28;20036;-64
2022/07/05 11:13:53;;;;;;;22.63;17.08;;;;;;;22.75;79.26;99543.66;5064037;28;20052;-64
2022/07/05 11:16:39;;;;;;;23.27;17.98;;;;;;;22.62;83.50;99532.28;5064321;28;20048;-64
2022/07/05 11:19:07;;;;;;;22.33;15.70;;;;;;;22.07;83.96;99543.25;5046428;28;20238;-64
2022/07/05 11:21:34;;;;;;;23.70;15.13;;;;;;;21.63;84.86;99527.00;5064048;28;20025;-64
2022/07/05 11:24:19;;;;;;;15.18;12.30;;;;;;;21.63;81.04;99523.53;5064194;28;20087;-63